Casablanca, Morocco
Current Conditions -  °F | °C
As of 1:00 AM on Sunday 26 Oct 2014 (Local Time) from GMMC Reporting Station
Clear Clear  
Wind Chill: 66°   Ceiling: Unl
Heat Index: 66°   Visibility: 4mi
Dew Point: 64°   Wind: 2mph
Humidity: 94%   Direction: 260°W
Pressure: 30.03"   Gusts: NA
Location:  33.6°N, 7.62°W
Report Text: GMMC 260000Z 26002KT 6000 NSC 19/18 Q1017
Loading
Personal Weather Stations






























Interactive Weather Map New forecast layout! Learn more

10-Day Weather Forecast

Advertisements
Track Severe Weather on mobile